Trevlac, Indiana
Current Conditions -  °F | °C
As of 3:55 AM on Wednesday 22 Oct 2014 (Local Time) from K1II Reporting Station
Broken Clouds Broken Clouds  
Wind Chill: 43°   Ceiling: 3300
Heat Index: 43°   Visibility: 10mi
Dew Point: 37°   Wind: 3mph
Humidity: 81%   Direction: 350°N
Pressure: 30.23"   Gusts: NA
Location:  39.193°N, 86.2182°W
Report Text: K1II 220755Z AUTO 35003KT 10SM BKN033 06/03 A3023 RMK AO2
Loading
Personal Weather Stations






























Interactive Weather Map
Tropical Storm Tracking
New forecast layout! Learn more

10-Day Weather Forecast

Advertisements
Track Severe Weather on mobile